sensor_id;sensor_type;location;lat;lon;timestamp;P1;durP1;ratioP1;P2;durP2;ratioP2
62419;SDS011;48460;51.616;5.426;2022-10-16T00:01:07;12.98;;;4.78;;
62419;SDS011;48460;51.616;5.426;2022-10-16T00:03:48;14.63;;;5.40;;
62419;SDS011;48460;51.616;5.426;2022-10-16T00:06:29;12.07;;;4.82;;
62419;SDS011;48460;51.616;5.426;2022-10-16T00:09:18;11.27;;;4.72;;
62419;SDS011;48460;51.616;5.426;2022-10-16T00:11:46;11.88;;;5.13;;
62419;SDS011;48460;51.616;5.426;2022-10-16T00:14:23;11.93;;;4.85;;
62419;SDS011;48460;51.616;5.426;2022-10-16T00:16:51;10.35;;;4.80;;
62419;SDS011;48460;51.616;5.426;2022-10-16T00:19:42;10.05;;;4.32;;
62419;SDS011;48460;51.616;5.426;2022-10-16T00:24:57;8.77;;;4.35;;
62419;SDS011;48460;51.616;5.426;2022-10-16T00:27:33;12.15;;;4.43;;
62419;SDS011;48460;51.616;5.426;2022-10-16T00:30:06;12.00;;;4.57;;
62419;SDS011;48460;51.616;5.426;2022-10-16T00:32:35;9.98;;;4.18;;
62419;SDS011;48460;51.616;5.426;2022-10-16T00:35:06;9.97;;;4.23;;
62419;SDS011;48460;51.616;5.426;2022-10-16T00:37:32;11.77;;;4.88;;
62419;SDS011;48460;51.616;5.426;2022-10-16T00:40:04;9.50;;;4.50;;
62419;SDS011;48460;51.616;5.426;2022-10-16T00:42:42;8.48;;;3.85;;
62419;SDS011;48460;51.616;5.426;2022-10-16T00:45:34;11.05;;;4.45;;
62419;SDS011;48460;51.616;5.426;2022-10-16T00:48:22;9.30;;;4.07;;
62419;SDS011;48460;51.616;5.426;2022-10-16T00:50:51;7.63;;;4.38;;
62419;SDS011;48460;51.616;5.426;2022-10-16T00:53:22;9.60;;;4.15;;
62419;SDS011;48460;51.616;5.426;2022-10-16T00:56:01;10.55;;;4.47;;
62419;SDS011;48460;51.616;5.426;2022-10-16T00:58:47;8.75;;;3.90;;
62419;SDS011;48460;51.616;5.426;2022-10-16T01:01:15;13.43;;;4.55;;
62419;SDS011;48460;51.616;5.426;2022-10-16T01:03:41;9.90;;;4.20;;
62419;SDS011;48460;51.616;5.426;2022-10-16T01:09:17;10.13;;;3.95;;
62419;SDS011;48460;51.616;5.426;2022-10-16T01:14:23;6.20;;;3.80;;
62419;SDS011;48460;51.616;5.426;2022-10-16T01:17:02;9.55;;;3.72;;
62419;SDS011;48460;51.616;5.426;2022-10-16T01:22:47;6.18;;;3.65;;
62419;SDS011;48460;51.616;5.426;2022-10-16T01:28:22;9.60;;;3.95;;
62419;SDS011;48460;51.616;5.426;2022-10-16T01:31:13;8.95;;;3.88;;
62419;SDS011;48460;51.616;5.426;2022-10-16T01:34:16;7.78;;;3.65;;
62419;SDS011;48460;51.616;5.426;2022-10-16T01:36:53;8.77;;;3.42;;
62419;SDS011;48460;51.616;5.426;2022-10-16T01:39:33;7.63;;;3.50;;
62419;SDS011;48460;51.616;5.426;2022-10-16T01:42:16;6.70;;;3.50;;
62419;SDS011;48460;51.616;5.426;2022-10-16T01:44:51;5.85;;;3.50;;
62419;SDS011;48460;51.616;5.426;2022-10-16T01:47:31;6.80;;;3.47;;
62419;SDS011;48460;51.616;5.426;2022-10-16T01:50:11;8.48;;;3.78;;
62419;SDS011;48460;51.616;5.426;2022-10-16T01:53:01;12.20;;;3.53;;
62419;SDS011;48460;51.616;5.426;2022-10-16T01:55:40;8.40;;;3.42;;
62419;SDS011;48460;51.616;5.426;2022-10-16T01:58:27;9.00;;;3.55;;
62419;SDS011;48460;51.616;5.426;2022-10-16T02:03:45;7.22;;;3.33;;
62419;SDS011;48460;51.616;5.426;2022-10-16T02:06:17;9.85;;;4.03;;
62419;SDS011;48460;51.616;5.426;2022-10-16T02:09:00;6.03;;;3.38;;
62419;SDS011;48460;51.616;5.426;2022-10-16T02:11:42;8.73;;;3.17;;
62419;SDS011;48460;51.616;5.426;2022-10-16T02:31:09;4.60;;;3.00;;
62419;SDS011;48460;51.616;5.426;2022-10-16T02:33:38;5.90;;;2.90;;
62419;SDS011;48460;51.616;5.426;2022-10-16T02:36:10;7.32;;;3.30;;
62419;SDS011;48460;51.616;5.426;2022-10-16T02:38:36;7.78;;;2.97;;
62419;SDS011;48460;51.616;5.426;2022-10-16T02:41:04;8.45;;;3.05;;
62419;SDS011;48460;51.616;5.426;2022-10-16T02:43:32;7.80;;;2.95;;
62419;SDS011;48460;51.616;5.426;2022-10-16T02:46:10;7.97;;;3.10;;
62419;SDS011;48460;51.616;5.426;2022-10-16T02:48:39;4.95;;;3.00;;
62419;SDS011;48460;51.616;5.426;2022-10-16T02:51:15;10.70;;;3.20;;
62419;SDS011;48460;51.616;5.426;2022-10-16T02:53:48;6.57;;;3.25;;
62419;SDS011;48460;51.616;5.426;2022-10-16T02:56:16;5.43;;;2.88;;
62419;SDS011;48460;51.616;5.426;2022-10-16T02:58:49;8.80;;;3.10;;
62419;SDS011;48460;51.616;5.426;2022-10-16T03:01:25;12.60;;;3.30;;
62419;SDS011;48460;51.616;5.426;2022-10-16T03:04:05;6.35;;;3.13;;
62419;SDS011;48460;51.616;5.426;2022-10-16T03:06:40;9.20;;;3.30;;
62419;SDS011;48460;51.616;5.426;2022-10-16T03:09:10;5.78;;;2.95;;
62419;SDS011;48460;51.616;5.426;2022-10-16T03:11:36;6.55;;;3.00;;
62419;SDS011;48460;51.616;5.426;2022-10-16T03:14:01;6.43;;;2.92;;
62419;SDS011;48460;51.616;5.426;2022-10-16T03:16:29;7.38;;;3.15;;
62419;SDS011;48460;51.616;5.426;2022-10-16T03:18:57;7.05;;;3.08;;
62419;SDS011;48460;51.616;5.426;2022-10-16T03:21:26;4.95;;;2.75;;
62419;SDS011;48460;51.616;5.426;2022-10-16T03:24:08;8.95;;;3.53;;
62419;SDS011;48460;51.616;5.426;2022-10-16T03:26:38;6.53;;;3.20;;
62419;SDS011;48460;51.616;5.426;2022-10-16T03:29:06;5.88;;;2.85;;
62419;SDS011;48460;51.616;5.426;2022-10-16T03:31:35;6.43;;;3.08;;
62419;SDS011;48460;51.616;5.426;2022-10-16T03:34:00;7.47;;;2.90;;
62419;SDS011;48460;51.616;5.426;2022-10-16T03:36:28;6.85;;;2.90;;
62419;SDS011;48460;51.616;5.426;2022-10-16T03:38:54;7.20;;;3.05;;
62419;SDS011;48460;51.616;5.426;2022-10-16T03:41:29;6.40;;;2.80;;
62419;SDS011;48460;51.616;5.426;2022-10-16T03:43:59;7.60;;;2.97;;
62419;SDS011;48460;51.616;5.426;2022-10-16T03:46:44;4.63;;;2.58;;
62419;SDS011;48460;51.616;5.426;2022-10-16T03:49:28;7.60;;;3.00;;
62419;SDS011;48460;51.616;5.426;2022-10-16T03:52:04;6.85;;;3.22;;
62419;SDS011;48460;51.616;5.426;2022-10-16T03:54:34;15.10;;;3.08;;
62419;SDS011;48460;51.616;5.426;2022-10-16T03:57:08;8.55;;;2.92;;
62419;SDS011;48460;51.616;5.426;2022-10-16T03:59:47;7.93;;;2.85;;
62419;SDS011;48460;51.616;5.426;2022-10-16T04:02:18;5.07;;;2.85;;
62419;SDS011;48460;51.616;5.426;2022-10-16T04:04:56;7.00;;;2.72;;
62419;SDS011;48460;51.616;5.426;2022-10-16T04:07:24;6.68;;;2.80;;
62419;SDS011;48460;51.616;5.426;2022-10-16T04:09:55;6.18;;;2.63;;
62419;SDS011;48460;51.616;5.426;2022-10-16T04:12:35;7.07;;;2.67;;
62419;SDS011;48460;51.616;5.426;2022-10-16T04:15:06;3.95;;;2.60;;
62419;SDS011;48460;51.616;5.426;2022-10-16T04:17:48;6.10;;;2.38;;
62419;SDS011;48460;51.616;5.426;2022-10-16T04:20:27;5.50;;;2.72;;
62419;SDS011;48460;51.616;5.426;2022-10-16T04:23:04;7.47;;;2.53;;
62419;SDS011;48460;51.616;5.426;2022-10-16T04:25:39;5.32;;;2.65;;
62419;SDS011;48460;51.616;5.426;2022-10-16T04:28:26;6.72;;;2.97;;
62419;SDS011;48460;51.616;5.426;2022-10-16T04:31:05;8.32;;;2.90;;
62419;SDS011;48460;51.616;5.426;2022-10-16T04:33:34;6.45;;;2.67;;
62419;SDS011;48460;51.616;5.426;2022-10-16T04:36:02;5.00;;;2.58;;
62419;SDS011;48460;51.616;5.426;2022-10-16T04:38:28;3.55;;;2.47;;
62419;SDS011;48460;51.616;5.426;2022-10-16T04:41:02;5.50;;;2.50;;
62419;SDS011;48460;51.616;5.426;2022-10-16T04:43:30;6.93;;;2.60;;
62419;SDS011;48460;51.616;5.426;2022-10-16T04:46:01;5.00;;;2.60;;
62419;SDS011;48460;51.616;5.426;2022-10-16T04:48:30;5.53;;;2.80;;
62419;SDS011;48460;51.616;5.426;2022-10-16T04:50:58;5.45;;;2.88;;
62419;SDS011;48460;51.616;5.426;2022-10-16T04:53:27;4.70;;;2.70;;
62419;SDS011;48460;51.616;5.426;2022-10-16T04:56:00;5.53;;;2.63;;
62419;SDS011;48460;51.616;5.426;2022-10-16T05:00:55;6.20;;;2.58;;
62419;SDS011;48460;51.616;5.426;2022-10-16T05:03:20;5.28;;;2.65;;
62419;SDS011;48460;51.616;5.426;2022-10-16T05:05:50;5.00;;;2.53;;
62419;SDS011;48460;51.616;5.426;2022-10-16T05:08:18;7.35;;;2.80;;
62419;SDS011;48460;51.616;5.426;2022-10-16T05:10:47;5.82;;;2.83;;
62419;SDS011;48460;51.616;5.426;2022-10-16T05:13:15;6.35;;;2.70;;
62419;SDS011;48460;51.616;5.426;2022-10-16T05:15:46;6.22;;;2.83;;
62419;SDS011;48460;51.616;5.426;2022-10-16T05:18:13;5.55;;;2.72;;
62419;SDS011;48460;51.616;5.426;2022-10-16T05:20:44;5.03;;;2.90;;
62419;SDS011;48460;51.616;5.426;2022-10-16T05:23:12;4.45;;;2.88;;
62419;SDS011;48460;51.616;5.426;2022-10-16T05:25:40;6.10;;;2.80;;
62419;SDS011;48460;51.616;5.426;2022-10-16T05:28:06;5.63;;;2.67;;
62419;SDS011;48460;51.616;5.426;2022-10-16T05:30:36;10.77;;;3.45;;
62419;SDS011;48460;51.616;5.426;2022-10-16T05:33:11;4.57;;;2.90;;
62419;SDS011;48460;51.616;5.426;2022-10-16T05:35:40;8.43;;;2.85;;
62419;SDS011;48460;51.616;5.426;2022-10-16T05:38:09;11.13;;;3.10;;
62419;SDS011;48460;51.616;5.426;2022-10-16T05:40:36;6.07;;;3.30;;
62419;SDS011;48460;51.616;5.426;2022-10-16T05:43:07;7.97;;;3.03;;
62419;SDS011;48460;51.616;5.426;2022-10-16T05:45:33;7.18;;;3.20;;
62419;SDS011;48460;51.616;5.426;2022-10-16T05:48:08;6.45;;;3.08;;
62419;SDS011;48460;51.616;5.426;2022-10-16T05:50:36;7.30;;;3.08;;
62419;SDS011;48460;51.616;5.426;2022-10-16T05:53:02;7.13;;;3.17;;
62419;SDS011;48460;51.616;5.426;2022-10-16T05:55:38;8.45;;;3.10;;
62419;SDS011;48460;51.616;5.426;2022-10-16T05:58:03;9.35;;;3.15;;
62419;SDS011;48460;51.616;5.426;2022-10-16T06:00:32;4.38;;;3.05;;
62419;SDS011;48460;51.616;5.426;2022-10-16T06:02:59;4.47;;;3.00;;
62419;SDS011;48460;51.616;5.426;2022-10-16T06:05:27;7.00;;;2.80;;
62419;SDS011;48460;51.616;5.426;2022-10-16T06:07:58;6.22;;;2.80;;
62419;SDS011;48460;51.616;5.426;2022-10-16T06:10:57;9.00;;;3.10;;
62419;SDS011;48460;51.616;5.426;2022-10-16T06:13:35;6.10;;;3.13;;
62419;SDS011;48460;51.616;5.426;2022-10-16T06:16:11;5.53;;;3.15;;
62419;SDS011;48460;51.616;5.426;2022-10-16T06:18:44;10.85;;;3.30;;
62419;SDS011;48460;51.616;5.426;2022-10-16T06:21:20;8.38;;;3.30;;
62419;SDS011;48460;51.616;5.426;2022-10-16T06:23:49;8.63;;;3.35;;
62419;SDS011;48460;51.616;5.426;2022-10-16T06:26:18;10.73;;;3.42;;
62419;SDS011;48460;51.616;5.426;2022-10-16T06:28:45;8.00;;;3.50;;
62419;SDS011;48460;51.616;5.426;2022-10-16T06:31:16;6.07;;;3.40;;
62419;SDS011;48460;51.616;5.426;2022-10-16T06:33:52;9.70;;;3.33;;
62419;SDS011;48460;51.616;5.426;2022-10-16T06:36:21;9.95;;;3.50;;
62419;SDS011;48460;51.616;5.426;2022-10-16T06:38:58;6.97;;;3.40;;
62419;SDS011;48460;51.616;5.426;2022-10-16T06:41:31;12.63;;;3.35;;
62419;SDS011;48460;51.616;5.426;2022-10-16T06:43:59;7.35;;;3.25;;
62419;SDS011;48460;51.616;5.426;2022-10-16T06:46:49;8.30;;;3.35;;
62419;SDS011;48460;51.616;5.426;2022-10-16T06:49:17;8.68;;;3.70;;
62419;SDS011;48460;51.616;5.426;2022-10-16T06:51:48;12.57;;;3.58;;
62419;SDS011;48460;51.616;5.426;2022-10-16T06:54:16;5.38;;;3.10;;
62419;SDS011;48460;51.616;5.426;2022-10-16T06:56:46;6.07;;;3.17;;
62419;SDS011;48460;51.616;5.426;2022-10-16T06:59:12;12.23;;;3.45;;
62419;SDS011;48460;51.616;5.426;2022-10-16T07:01:40;12.77;;;3.60;;
62419;SDS011;48460;51.616;5.426;2022-10-16T07:04:05;10.93;;;3.42;;
62419;SDS011;48460;51.616;5.426;2022-10-16T07:06:47;10.48;;;4.00;;
62419;SDS011;48460;51.616;5.426;2022-10-16T07:09:26;9.02;;;4.07;;
62419;SDS011;48460;51.616;5.426;2022-10-16T07:11:56;10.30;;;4.57;;
62419;SDS011;48460;51.616;5.426;2022-10-16T07:14:40;9.20;;;4.55;;
62419;SDS011;48460;51.616;5.426;2022-10-16T07:17:08;8.73;;;4.38;;
62419;SDS011;48460;51.616;5.426;2022-10-16T07:19:36;8.90;;;4.18;;
62419;SDS011;48460;51.616;5.426;2022-10-16T07:22:01;8.90;;;4.00;;
62419;SDS011;48460;51.616;5.426;2022-10-16T07:24:35;6.38;;;3.42;;
62419;SDS011;48460;51.616;5.426;2022-10-16T07:27:02;8.63;;;3.50;;
62419;SDS011;48460;51.616;5.426;2022-10-16T07:29:28;11.80;;;3.28;;
62419;SDS011;48460;51.616;5.426;2022-10-16T07:31:54;7.85;;;3.20;;
62419;SDS011;48460;51.616;5.426;2022-10-16T07:34:26;6.72;;;3.13;;
62419;SDS011;48460;51.616;5.426;2022-10-16T07:36:52;12.13;;;3.50;;
62419;SDS011;48460;51.616;5.426;2022-10-16T07:39:26;6.45;;;2.88;;
62419;SDS011;48460;51.616;5.426;2022-10-16T07:41:54;7.00;;;3.20;;
62419;SDS011;48460;51.616;5.426;2022-10-16T07:44:22;7.97;;;2.63;;
62419;SDS011;48460;51.616;5.426;2022-10-16T07:46:50;8.27;;;2.90;;
62419;SDS011;48460;51.616;5.426;2022-10-16T07:49:18;7.18;;;2.70;;
62419;SDS011;48460;51.616;5.426;2022-10-16T07:51:43;8.25;;;2.90;;
62419;SDS011;48460;51.616;5.426;2022-10-16T07:54:09;8.05;;;2.90;;
62419;SDS011;48460;51.616;5.426;2022-10-16T07:56:35;7.50;;;2.83;;
62419;SDS011;48460;51.616;5.426;2022-10-16T07:59:01;11.38;;;3.20;;
62419;SDS011;48460;51.616;5.426;2022-10-16T08:01:29;9.80;;;2.90;;
62419;SDS011;48460;51.616;5.426;2022-10-16T08:03:54;6.47;;;3.00;;
62419;SDS011;48460;51.616;5.426;2022-10-16T08:06:20;8.60;;;3.13;;
62419;SDS011;48460;51.616;5.426;2022-10-16T08:08:50;8.80;;;3.25;;
62419;SDS011;48460;51.616;5.426;2022-10-16T08:14:18;9.13;;;3.10;;
62419;SDS011;48460;51.616;5.426;2022-10-16T08:16:48;7.30;;;2.80;;
62419;SDS011;48460;51.616;5.426;2022-10-16T08:19:24;7.03;;;2.72;;
62419;SDS011;48460;51.616;5.426;2022-10-16T08:21:53;7.78;;;2.80;;
62419;SDS011;48460;51.616;5.426;2022-10-16T08:24:19;12.82;;;3.08;;
62419;SDS011;48460;51.616;5.426;2022-10-16T08:26:44;6.22;;;2.65;;
62419;SDS011;48460;51.616;5.426;2022-10-16T08:29:12;6.43;;;2.58;;
62419;SDS011;48460;51.616;5.426;2022-10-16T08:31:41;6.47;;;2.58;;
62419;SDS011;48460;51.616;5.426;2022-10-16T08:34:08;8.90;;;2.80;;
62419;SDS011;48460;51.616;5.426;2022-10-16T08:36:34;11.95;;;2.83;;
62419;SDS011;48460;51.616;5.426;2022-10-16T08:39:04;7.93;;;2.47;;
62419;SDS011;48460;51.616;5.426;2022-10-16T08:51:02;13.98;;;2.95;;
62419;SDS011;48460;51.616;5.426;2022-10-16T08:59:39;9.05;;;2.65;;
62419;SDS011;48460;51.616;5.426;2022-10-16T09:02:31;8.45;;;2.55;;
62419;SDS011;48460;51.616;5.426;2022-10-16T09:16:52;8.88;;;2.60;;
62419;SDS011;48460;51.616;5.426;2022-10-16T09:19:40;13.50;;;3.00;;
62419;SDS011;48460;51.616;5.426;2022-10-16T09:22:16;5.22;;;2.53;;
62419;SDS011;48460;51.616;5.426;2022-10-16T09:24:51;10.02;;;2.75;;
62419;SDS011;48460;51.616;5.426;2022-10-16T09:27:17;10.02;;;2.60;;
62419;SDS011;48460;51.616;5.426;2022-10-16T09:29:45;10.52;;;2.70;;
62419;SDS011;48460;51.616;5.426;2022-10-16T09:32:15;10.68;;;2.60;;
62419;SDS011;48460;51.616;5.426;2022-10-16T09:34:52;10.52;;;3.05;;
62419;SDS011;48460;51.616;5.426;2022-10-16T09:37:21;11.68;;;3.00;;
62419;SDS011;48460;51.616;5.426;2022-10-16T09:39:50;11.77;;;2.65;;
62419;SDS011;48460;51.616;5.426;2022-10-16T09:42:20;14.68;;;3.78;;
62419;SDS011;48460;51.616;5.426;2022-10-16T09:44:51;6.50;;;2.53;;
62419;SDS011;48460;51.616;5.426;2022-10-16T09:47:23;12.30;;;2.88;;
62419;SDS011;48460;51.616;5.426;2022-10-16T09:50:25;18.40;;;3.33;;
62419;SDS011;48460;51.616;5.426;2022-10-16T09:53:08;9.27;;;3.13;;
62419;SDS011;48460;51.616;5.426;2022-10-16T09:55:49;15.13;;;2.80;;
62419;SDS011;48460;51.616;5.426;2022-10-16T09:58:16;14.43;;;3.58;;
62419;SDS011;48460;51.616;5.426;2022-10-16T10:00:48;11.45;;;2.95;;
62419;SDS011;48460;51.616;5.426;2022-10-16T10:03:23;13.00;;;3.20;;
62419;SDS011;48460;51.616;5.426;2022-10-16T10:06:23;14.35;;;3.20;;
62419;SDS011;48460;51.616;5.426;2022-10-16T10:08:54;16.27;;;3.83;;
62419;SDS011;48460;51.616;5.426;2022-10-16T10:14:05;13.40;;;3.30;;
62419;SDS011;48460;51.616;5.426;2022-10-16T10:16:40;15.45;;;2.97;;
62419;SDS011;48460;51.616;5.426;2022-10-16T10:19:12;17.02;;;3.30;;
62419;SDS011;48460;51.616;5.426;2022-10-16T10:21:46;8.95;;;2.75;;
62419;SDS011;48460;51.616;5.426;2022-10-16T10:24:13;12.25;;;3.20;;
62419;SDS011;48460;51.616;5.426;2022-10-16T10:26:51;12.60;;;2.90;;
62419;SDS011;48460;51.616;5.426;2022-10-16T10:32:45;12.43;;;2.85;;
62419;SDS011;48460;51.616;5.426;2022-10-16T10:40:34;16.92;;;2.95;;
62419;SDS011;48460;51.616;5.426;2022-10-16T10:43:16;9.00;;;2.53;;
62419;SDS011;48460;51.616;5.426;2022-10-16T10:45:54;15.93;;;2.97;;
62419;SDS011;48460;51.616;5.426;2022-10-16T10:51:56;14.80;;;3.40;;
62419;SDS011;48460;51.616;5.426;2022-10-16T10:57:23;15.45;;;3.28;;
62419;SDS011;48460;51.616;5.426;2022-10-16T11:00:21;10.93;;;2.53;;
62419;SDS011;48460;51.616;5.426;2022-10-16T11:16:40;13.77;;;2.97;;
62419;SDS011;48460;51.616;5.426;2022-10-16T11:19:19;12.90;;;2.78;;
62419;SDS011;48460;51.616;5.426;2022-10-16T11:25:05;12.23;;;2.83;;
62419;SDS011;48460;51.616;5.426;2022-10-16T11:30:20;16.60;;;3.00;;
62419;SDS011;48460;51.616;5.426;2022-10-16T11:35:41;13.77;;;3.35;;
62419;SDS011;48460;51.616;5.426;2022-10-16T11:41:19;12.25;;;3.05;;
62419;SDS011;48460;51.616;5.426;2022-10-16T11:44:06;15.95;;;3.33;;
62419;SDS011;48460;51.616;5.426;2022-10-16T11:49:59;17.40;;;3.08;;
62419;SDS011;48460;51.616;5.426;2022-10-16T11:55:34;15.52;;;3.30;;
62419;SDS011;48460;51.616;5.426;2022-10-16T11:58:05;14.95;;;2.80;;
62419;SDS011;48460;51.616;5.426;2022-10-16T12:00:43;13.77;;;3.22;;
62419;SDS011;48460;51.616;5.426;2022-10-16T12:03:38;12.27;;;2.97;;
62419;SDS011;48460;51.616;5.426;2022-10-16T12:08:55;13.43;;;2.72;;
62419;SDS011;48460;51.616;5.426;2022-10-16T12:13:51;15.50;;;3.17;;
62419;SDS011;48460;51.616;5.426;2022-10-16T12:16:28;12.73;;;2.75;;
62419;SDS011;48460;51.616;5.426;2022-10-16T12:19:15;9.52;;;2.80;;
62419;SDS011;48460;51.616;5.426;2022-10-16T12:21:42;10.68;;;2.75;;
62419;SDS011;48460;51.616;5.426;2022-10-16T12:29:57;13.05;;;3.00;;
62419;SDS011;48460;51.616;5.426;2022-10-16T12:32:27;11.10;;;2.80;;
62419;SDS011;48460;51.616;5.426;2022-10-16T12:34:55;12.70;;;2.90;;
62419;SDS011;48460;51.616;5.426;2022-10-16T12:37:22;15.82;;;2.85;;
62419;SDS011;48460;51.616;5.426;2022-10-16T12:39:52;14.25;;;2.83;;
62419;SDS011;48460;51.616;5.426;2022-10-16T12:44:50;11.63;;;2.80;;
62419;SDS011;48460;51.616;5.426;2022-10-16T12:47:35;12.85;;;2.60;;
62419;SDS011;48460;51.616;5.426;2022-10-16T12:50:26;10.77;;;2.90;;
62419;SDS011;48460;51.616;5.426;2022-10-16T12:52:55;10.20;;;2.85;;
62419;SDS011;48460;51.616;5.426;2022-10-16T12:55:21;12.60;;;2.83;;
62419;SDS011;48460;51.616;5.426;2022-10-16T12:58:03;12.05;;;2.55;;
62419;SDS011;48460;51.616;5.426;2022-10-16T13:09:07;13.80;;;2.83;;
62419;SDS011;48460;51.616;5.426;2022-10-16T13:17:50;14.70;;;2.83;;
62419;SDS011;48460;51.616;5.426;2022-10-16T13:29:29;11.27;;;2.83;;
62419;SDS011;48460;51.616;5.426;2022-10-16T13:32:07;10.23;;;2.60;;
62419;SDS011;48460;51.616;5.426;2022-10-16T13:37:25;10.55;;;2.50;;
62419;SDS011;48460;51.616;5.426;2022-10-16T13:40:20;9.43;;;2.10;;
62419;SDS011;48460;51.616;5.426;2022-10-16T13:45:28;9.93;;;2.33;;
62419;SDS011;48460;51.616;5.426;2022-10-16T13:48:01;12.95;;;2.40;;
62419;SDS011;48460;51.616;5.426;2022-10-16T13:51:27;13.82;;;2.58;;
62419;SDS011;48460;51.616;5.426;2022-10-16T13:53:57;9.13;;;2.42;;
62419;SDS011;48460;51.616;5.426;2022-10-16T14:00:22;12.85;;;2.58;;
62419;SDS011;48460;51.616;5.426;2022-10-16T14:23:46;11.88;;;2.60;;
62419;SDS011;48460;51.616;5.426;2022-10-16T14:26:51;12.48;;;2.50;;
62419;SDS011;48460;51.616;5.426;2022-10-16T14:29:26;9.52;;;2.40;;
62419;SDS011;48460;51.616;5.426;2022-10-16T14:32:05;11.38;;;2.45;;
62419;SDS011;48460;51.616;5.426;2022-10-16T14:34:35;11.30;;;3.03;;
62419;SDS011;48460;51.616;5.426;2022-10-16T14:37:15;8.60;;;2.47;;
62419;SDS011;48460;51.616;5.426;2022-10-16T14:39:52;12.20;;;2.75;;
62419;SDS011;48460;51.616;5.426;2022-10-16T14:42:19;12.02;;;3.08;;
62419;SDS011;48460;51.616;5.426;2022-10-16T14:44:55;11.20;;;2.92;;
62419;SDS011;48460;51.616;5.426;2022-10-16T14:47:22;12.90;;;2.80;;
62419;SDS011;48460;51.616;5.426;2022-10-16T14:49:51;12.23;;;2.83;;
62419;SDS011;48460;51.616;5.426;2022-10-16T14:52:22;13.48;;;2.80;;
62419;SDS011;48460;51.616;5.426;2022-10-16T14:54:48;8.60;;;2.75;;
62419;SDS011;48460;51.616;5.426;2022-10-16T14:57:18;9.52;;;2.65;;
62419;SDS011;48460;51.616;5.426;2022-10-16T14:59:49;11.77;;;2.83;;
62419;SDS011;48460;51.616;5.426;2022-10-16T15:02:28;9.73;;;2.75;;
62419;SDS011;48460;51.616;5.426;2022-10-16T15:07:43;9.52;;;2.40;;
62419;SDS011;48460;51.616;5.426;2022-10-16T15:10:33;17.23;;;2.50;;
62419;SDS011;48460;51.616;5.426;2022-10-16T15:13:03;12.05;;;2.80;;
62419;SDS011;48460;51.616;5.426;2022-10-16T15:15:33;14.27;;;2.50;;
62419;SDS011;48460;51.616;5.426;2022-10-16T15:18:14;11.23;;;2.58;;
62419;SDS011;48460;51.616;5.426;2022-10-16T15:20:50;11.63;;;2.60;;
62419;SDS011;48460;51.616;5.426;2022-10-16T15:23:17;11.98;;;2.78;;
62419;SDS011;48460;51.616;5.426;2022-10-16T15:32:18;9.43;;;2.25;;
62419;SDS011;48460;51.616;5.426;2022-10-16T15:34:44;9.73;;;2.20;;
62419;SDS011;48460;51.616;5.426;2022-10-16T15:37:09;7.60;;;2.42;;
62419;SDS011;48460;51.616;5.426;2022-10-16T15:39:44;6.13;;;2.00;;
62419;SDS011;48460;51.616;5.426;2022-10-16T15:42:12;7.72;;;2.28;;
62419;SDS011;48460;51.616;5.426;2022-10-16T15:44:38;8.77;;;2.70;;
62419;SDS011;48460;51.616;5.426;2022-10-16T15:47:04;10.70;;;2.65;;
62419;SDS011;48460;51.616;5.426;2022-10-16T15:49:32;7.70;;;2.25;;
62419;SDS011;48460;51.616;5.426;2022-10-16T15:51:59;8.65;;;2.25;;
62419;SDS011;48460;51.616;5.426;2022-10-16T15:54:33;7.13;;;2.47;;
62419;SDS011;48460;51.616;5.426;2022-10-16T15:57:01;10.65;;;2.90;;
62419;SDS011;48460;51.616;5.426;2022-10-16T15:59:27;8.07;;;2.75;;
62419;SDS011;48460;51.616;5.426;2022-10-16T16:01:55;7.53;;;2.40;;
62419;SDS011;48460;51.616;5.426;2022-10-16T16:04:25;7.90;;;2.70;;
62419;SDS011;48460;51.616;5.426;2022-10-16T16:06:54;7.10;;;2.70;;
62419;SDS011;48460;51.616;5.426;2022-10-16T16:12:59;8.83;;;2.33;;
62419;SDS011;48460;51.616;5.426;2022-10-16T16:15:32;7.00;;;2.75;;
62419;SDS011;48460;51.616;5.426;2022-10-16T16:18:03;7.65;;;2.85;;
62419;SDS011;48460;51.616;5.426;2022-10-16T16:20:31;8.90;;;2.53;;
62419;SDS011;48460;51.616;5.426;2022-10-16T16:22:57;7.05;;;2.40;;
62419;SDS011;48460;51.616;5.426;2022-10-16T16:25:23;9.02;;;2.60;;
62419;SDS011;48460;51.616;5.426;2022-10-16T16:27:56;7.65;;;2.60;;
62419;SDS011;48460;51.616;5.426;2022-10-16T16:30:32;10.20;;;2.80;;
62419;SDS011;48460;51.616;5.426;2022-10-16T16:33:11;6.07;;;2.67;;
62419;SDS011;48460;51.616;5.426;2022-10-16T16:35:36;6.30;;;2.92;;
62419;SDS011;48460;51.616;5.426;2022-10-16T16:38:02;10.38;;;3.00;;
62419;SDS011;48460;51.616;5.426;2022-10-16T16:40:32;7.20;;;3.03;;
62419;SDS011;48460;51.616;5.426;2022-10-16T16:43:00;12.43;;;3.20;;
62419;SDS011;48460;51.616;5.426;2022-10-16T16:45:29;8.35;;;3.80;;
62419;SDS011;48460;51.616;5.426;2022-10-16T16:48:12;9.63;;;3.80;;
62419;SDS011;48460;51.616;5.426;2022-10-16T16:50:38;11.35;;;3.22;;
62419;SDS011;48460;51.616;5.426;2022-10-16T16:53:10;8.07;;;3.38;;
62419;SDS011;48460;51.616;5.426;2022-10-16T16:55:36;7.28;;;3.30;;
62419;SDS011;48460;51.616;5.426;2022-10-16T16:58:01;6.93;;;3.40;;
62419;SDS011;48460;51.616;5.426;2022-10-16T17:00:28;7.07;;;3.60;;
62419;SDS011;48460;51.616;5.426;2022-10-16T17:02:55;9.10;;;3.17;;
62419;SDS011;48460;51.616;5.426;2022-10-16T17:05:22;11.35;;;3.67;;
62419;SDS011;48460;51.616;5.426;2022-10-16T17:07:48;10.10;;;3.70;;
62419;SDS011;48460;51.616;5.426;2022-10-16T17:10:15;13.98;;;4.18;;
62419;SDS011;48460;51.616;5.426;2022-10-16T17:12:41;8.70;;;4.10;;
62419;SDS011;48460;51.616;5.426;2022-10-16T17:15:07;11.27;;;3.97;;
62419;SDS011;48460;51.616;5.426;2022-10-16T17:17:35;11.43;;;4.03;;
62419;SDS011;48460;51.616;5.426;2022-10-16T17:20:01;11.70;;;4.70;;
62419;SDS011;48460;51.616;5.426;2022-10-16T17:22:27;15.85;;;4.55;;
62419;SDS011;48460;51.616;5.426;2022-10-16T17:24:52;8.38;;;4.47;;
62419;SDS011;48460;51.616;5.426;2022-10-16T17:27:18;9.20;;;4.43;;
62419;SDS011;48460;51.616;5.426;2022-10-16T17:29:45;12.15;;;6.85;;
62419;SDS011;48460;51.616;5.426;2022-10-16T17:32:14;13.27;;;6.32;;
62419;SDS011;48460;51.616;5.426;2022-10-16T17:34:39;17.42;;;9.57;;
62419;SDS011;48460;51.616;5.426;2022-10-16T17:39:55;24.52;;;12.38;;
62419;SDS011;48460;51.616;5.426;2022-10-16T17:42:20;17.25;;;8.27;;
62419;SDS011;48460;51.616;5.426;2022-10-16T17:44:46;21.77;;;11.43;;
62419;SDS011;48460;51.616;5.426;2022-10-16T17:47:26;18.67;;;8.10;;
62419;SDS011;48460;51.616;5.426;2022-10-16T17:53:22;11.57;;;5.93;;
62419;SDS011;48460;51.616;5.426;2022-10-16T17:55:49;13.32;;;5.72;;
62419;SDS011;48460;51.616;5.426;2022-10-16T17:58:25;13.50;;;5.82;;
62419;SDS011;48460;51.616;5.426;2022-10-16T18:00:51;15.70;;;5.55;;
62419;SDS011;48460;51.616;5.426;2022-10-16T18:03:16;11.93;;;5.63;;
62419;SDS011;48460;51.616;5.426;2022-10-16T18:05:42;12.35;;;5.82;;
62419;SDS011;48460;51.616;5.426;2022-10-16T18:08:15;14.90;;;6.32;;
62419;SDS011;48460;51.616;5.426;2022-10-16T18:10:44;11.50;;;5.28;;
62419;SDS011;48460;51.616;5.426;2022-10-16T18:13:12;12.52;;;5.65;;
62419;SDS011;48460;51.616;5.426;2022-10-16T18:15:38;12.32;;;5.20;;
62419;SDS011;48460;51.616;5.426;2022-10-16T18:18:06;17.33;;;4.93;;
62419;SDS011;48460;51.616;5.426;2022-10-16T18:20:32;11.77;;;4.72;;
62419;SDS011;48460;51.616;5.426;2022-10-16T18:23:00;15.23;;;5.03;;
62419;SDS011;48460;51.616;5.426;2022-10-16T18:25:25;13.05;;;5.22;;
62419;SDS011;48460;51.616;5.426;2022-10-16T18:27:51;13.73;;;5.55;;
62419;SDS011;48460;51.616;5.426;2022-10-16T18:30:19;10.25;;;5.10;;
62419;SDS011;48460;51.616;5.426;2022-10-16T18:32:48;11.60;;;4.82;;
62419;SDS011;48460;51.616;5.426;2022-10-16T18:35:13;10.95;;;4.63;;
62419;SDS011;48460;51.616;5.426;2022-10-16T18:37:41;15.43;;;4.63;;